KELY/ELY METAR and TAF weather

Enter ICAO airport designator
Station Type Date Time Source
KELY METAR 2020/03/31 11:53 UTC NOAA

KELY 311153Z AUTO 29005KT 10SM CLR M01/M04 A3015 RMK AO2 SLP188 T10111039 10061 21011 58007


Station Type Date Time Source
KELY Decoded METAR 2020/03/31 11:53 UTC NOAA

ELY AIRPORT (YELLAND FIELD), NV, United States (KELY) 39-18N 114-51W 1906M
Mar 31, 2020 - 07:53 AM EDT / 2020.03.31 1153 UTC
Wind: from the WNW (290 degrees) at 6 MPH (5 KT):0
Visibility: 10 mile(s):0
Sky conditions: clear
Temperature: 30.0 F (-1.1 C)
Windchill: 23 F (-5 C):1
Dew Point: 25.0 F (-3.9 C)
Relative Humidity: 81%
Pressure (altimeter): 30.15 in. Hg (1020 hPa)
Pressure tendency: 0.02 inches (0.7 hPa) lower than three hours ago
ob: KELY 311153Z AUTO 29005KT 10SM CLR M01/M04 A3015 RMK AO2 SLP188 T10111039 10061 21011 58007
cycle: 12

Station Type Date Time Source
KELY TAF 2020/03/31 12:22 UTC NOAA

TAF KELY 311120Z 3112/0112 VRB06KT P6SM BKN070
FM311700 20015G25KT P6SM BKN070
FM010300 20010KT P6SM FEW070

Example: see airport list